Список аэропортов
Фактическая погода:

15 августа, 23:20
Температура: +18°C (+18.0*)
Ветер: 0
Давление: *764 мм
Без существ. явл.
Время (МСК)Темп. СВетерВлажностьДавлениеОблачностьОсадки
21:00+23СЗ, 3 м/с52%1019 гПас прояснениями
22:00+22СЗ, 2 м/с58%1019 гПамалооблачно
23:00+20СЗ, 2 м/с65%1019 гПас прояснениями
16 августа
00:00+20СЗ, 2 м/с68%1020 гПас прояснениями
01:00+19З, 1 м/с76%1020 гПас прояснениями
02:00+17Штиль 84%1019 гПас прояснениями
03:00+17ЮВ, 1 м/с89%1019 гПамалооблачно
04:00+16ЮВ, 1 м/с89%1019 гПамалооблачно
05:00+16В, 1 м/с89%1019 гПас прояснениями
06:00+16В, 1 м/с90%1019 гПас прояснениями
07:00+16В, 1 м/с91%1020 гПас прояснениями
08:00+17В, 1 м/с88%1019 гПас прояснениями
09:00+18В, 1 м/с82%1019 гПамалооблачно
10:00+21ЮВ, 2 м/с63%1019 гПаясно
11:00+23ЮВ, 3 м/с52%1019 гПаясно
12:00+25ЮВ, 3 м/с44%1019 гПаясно
13:00+26Ю, 4 м/с38%1018 гПаясно
14:00+27ЮВ, 4 м/с35%1018 гПаясно
15:00+28ЮВ, 4 м/с33%1017 гПаясно
16:00+28ЮВ, 4 м/с32%1016 гПаясно
17:00+28ЮВ, 4 м/с32%1016 гПаясно
18:00+28ЮВ, 4 м/с31%1015 гПамалооблачно
19:00+28ЮВ, 3 м/с32%1015 гПаясно
20:00+28ЮВ, 3 м/с33%1015 гПаясно
21:00+26ЮВ, 3 м/с36%1015 гПаясно
22:00+24В, 3 м/с43%1015 гПаясно
23:00+23В, 3 м/с47%1015 гПаясно
17 августа
00:00+22В, 3 м/с50%1015 гПаясно
01:00+21В, 3 м/с54%1015 гПаясно
02:00+21ЮВ, 3 м/с57%1015 гПаясно
03:00+19В, 3 м/с62%1015 гПаясно
04:00+19В, 4 м/с65%1015 гПаясно
05:00+18В, 4 м/с68%1015 гПаясно
06:00+18В, 4 м/с69%1014 гПаясно
07:00+17В, 4 м/с71%1014 гПаясно
08:00+17В, 4 м/с73%1014 гПаясно
09:00+18В, 4 м/с67%1014 гПаясно
10:00+21ЮВ, 4 м/с57%1014 гПаясно
11:00+23ЮВ, 4 м/с49%1014 гПаясно
12:00+25ЮВ, 4 м/с43%1014 гПаясно
13:00+27ЮВ, 4 м/с38%1013 гПаясно
14:00+29ЮВ, 5 м/с33%1013 гПаясно
15:00+30Ю, 4 м/с30%1013 гПаясно
16:00+31Ю, 4 м/с29%1012 гПас прояснениями
17:00+31ЮВ, 4 м/с28%1012 гПас прояснениями
18:00+31ЮВ, 4 м/с28%1011 гПаоблачно
19:00+31ЮВ, 3 м/с28%1011 гПаоблачно
20:00+30ЮВ, 3 м/с29%1011 гПамалооблачно
21:00+29ЮВ, 3 м/с32%1011 гПамалооблачно